Aviation Digital Data Service (ADDS)

Output produced by TAFs form (2353 UTC 19 October 2017)
found at http://aviationweather.gov/adds/tafs/
 
KIPJ 192350Z AUTO 00000KT 10SM CLR 13/10 A3024 RMK AO2 T01250097 10237 20125